createdAt,value
2022-09-15T00:01:08.513Z,6.68
2022-09-15T00:03:35.434Z,9.02
2022-09-15T00:06:02.126Z,7.63
2022-09-15T00:08:29.997Z,7.82
2022-09-15T00:11:05.456Z,5.87
2022-09-15T00:13:34.113Z,7.97
2022-09-15T00:16:01.147Z,9.57
2022-09-15T00:18:27.711Z,6.90
2022-09-15T00:20:54.256Z,7.13
2022-09-15T00:23:20.848Z,5.90
2022-09-15T00:25:49.201Z,7.53
2022-09-15T00:28:17.192Z,10.27
2022-09-15T00:30:47.829Z,5.97
2022-09-15T00:33:15.429Z,6.68
2022-09-15T00:35:43.770Z,6.20
2022-09-15T00:38:11.889Z,7.13
2022-09-15T00:40:43.992Z,6.00
2022-09-15T00:43:11.523Z,6.97
2022-09-15T00:45:38.382Z,6.57
2022-09-15T00:48:08.720Z,6.20
2022-09-15T00:50:37.262Z,5.30
2022-09-15T00:53:07.128Z,6.43
2022-09-15T00:55:37.694Z,7.03
2022-09-15T00:58:06.937Z,6.82
2022-09-15T01:00:34.288Z,9.63
2022-09-15T01:03:01.987Z,6.70
2022-09-15T01:05:34.213Z,6.45
2022-09-15T01:08:03.427Z,7.80
2022-09-15T01:10:32.146Z,6.82
2022-09-15T01:13:01.750Z,8.33
2022-09-15T01:15:37.513Z,8.20
2022-09-15T01:18:13.032Z,6.88
2022-09-15T01:21:21.538Z,7.63
2022-09-15T01:24:21.572Z,9.25
2022-09-15T01:27:30.617Z,7.13
2022-09-15T01:30:15.978Z,7.47
2022-09-15T01:33:10.556Z,5.97
2022-09-15T01:35:59.429Z,5.93
2022-09-15T01:38:37.346Z,6.97
2022-09-15T01:41:09.520Z,5.17
2022-09-15T01:43:42.623Z,11.40
2022-09-15T01:46:13.023Z,5.63
2022-09-15T01:48:41.329Z,6.03
2022-09-15T01:51:09.045Z,5.78
2022-09-15T01:53:35.940Z,5.53
2022-09-15T01:56:06.697Z,5.95
2022-09-15T01:58:34.107Z,6.25
2022-09-15T02:01:07.278Z,5.65
2022-09-15T02:03:43.422Z,5.90
2022-09-15T02:06:16.281Z,12.00
2022-09-15T02:08:46.841Z,7.15
2022-09-15T02:11:16.637Z,7.25
2022-09-15T02:13:48.622Z,7.18
2022-09-15T02:16:20.174Z,8.88
2022-09-15T02:19:10.345Z,6.60
2022-09-15T02:21:47.120Z,8.10
2022-09-15T02:24:17.997Z,6.63
2022-09-15T02:26:47.384Z,7.05
2022-09-15T02:29:16.881Z,8.60
2022-09-15T02:31:45.199Z,7.83
2022-09-15T02:34:17.101Z,7.13
2022-09-15T02:36:45.417Z,7.03
2022-09-15T02:39:16.106Z,6.53
2022-09-15T02:41:43.337Z,8.48
2022-09-15T02:44:10.038Z,8.17
2022-09-15T02:46:36.705Z,6.97
2022-09-15T02:49:03.343Z,6.90
2022-09-15T02:51:31.282Z,9.18
2022-09-15T02:53:57.817Z,9.13
2022-09-15T02:56:24.357Z,5.50
2022-09-15T02:58:50.964Z,6.35
2022-09-15T03:01:17.661Z,6.10
2022-09-15T03:03:45.630Z,6.55
2022-09-15T03:06:13.042Z,8.52
2022-09-15T03:08:40.912Z,5.80
2022-09-15T03:11:07.571Z,6.10
2022-09-15T03:13:34.097Z,7.70
2022-09-15T03:16:07.324Z,7.75
2022-09-15T03:18:33.997Z,6.53
2022-09-15T03:21:00.580Z,9.07
2022-09-15T03:23:27.214Z,7.07
2022-09-15T03:25:55.141Z,7.07
2022-09-15T03:28:21.630Z,7.68
2022-09-15T03:30:48.192Z,7.13
2022-09-15T03:33:14.733Z,6.43
2022-09-15T03:35:41.260Z,6.43
2022-09-15T03:38:07.808Z,8.30
2022-09-15T03:40:34.427Z,7.13
2022-09-15T03:43:02.322Z,6.93
2022-09-15T03:45:29.097Z,6.20
2022-09-15T03:47:55.672Z,6.32
2022-09-15T03:50:22.625Z,6.25
2022-09-15T03:52:49.177Z,6.97
2022-09-15T03:55:15.733Z,6.10
2022-09-15T03:57:42.277Z,6.23
2022-09-15T04:00:11.685Z,6.75
2022-09-15T04:02:38.331Z,6.75
2022-09-15T04:05:05.912Z,5.85
2022-09-15T04:07:32.529Z,6.10
2022-09-15T04:09:59.089Z,5.63
2022-09-15T04:12:25.637Z,7.60
2022-09-15T04:14:52.176Z,7.05
2022-09-15T04:17:20.087Z,4.90
2022-09-15T04:19:46.641Z,5.63
2022-09-15T04:22:17.538Z,6.23
2022-09-15T04:24:44.601Z,6.90
2022-09-15T04:27:11.134Z,6.55
2022-09-15T04:29:37.671Z,4.65
2022-09-15T04:32:04.361Z,6.35
2022-09-15T04:34:32.293Z,1.90
2022-09-15T04:36:58.877Z,2.88
2022-09-15T04:39:25.499Z,5.35
2022-09-15T04:41:52.050Z,1.70
2022-09-15T04:44:18.834Z,1.73
2022-09-15T04:46:45.516Z,3.67
2022-09-15T04:49:12.126Z,1.65
2022-09-15T04:51:40.014Z,1.83
2022-09-15T04:54:06.626Z,2.05
2022-09-15T04:56:33.175Z,2.92
2022-09-15T04:59:03.790Z,2.53
2022-09-15T05:01:33.073Z,2.47
2022-09-15T05:04:01.017Z,2.40
2022-09-15T05:06:27.883Z,2.65
2022-09-15T05:08:57.636Z,2.50
2022-09-15T05:11:28.355Z,3.53
2022-09-15T05:13:55.190Z,2.65
2022-09-15T05:16:24.103Z,4.47
2022-09-15T05:18:52.758Z,3.28
2022-09-15T05:21:21.014Z,2.35
2022-09-15T05:23:48.481Z,3.07
2022-09-15T05:26:18.304Z,2.55
2022-09-15T05:28:45.061Z,2.28
2022-09-15T05:31:13.411Z,1.65
2022-09-15T05:33:40.136Z,2.97
2022-09-15T05:36:07.165Z,1.73
2022-09-15T05:38:33.741Z,2.45
2022-09-15T05:41:03.981Z,2.80
2022-09-15T05:43:32.972Z,2.67
2022-09-15T05:45:59.860Z,4.05
2022-09-15T05:48:27.161Z,2.03
2022-09-15T05:50:55.181Z,2.60
2022-09-15T05:53:22.172Z,3.13
2022-09-15T05:55:49.310Z,1.58
2022-09-15T05:58:15.849Z,3.58
2022-09-15T06:00:43.913Z,1.73
2022-09-15T06:03:14.014Z,1.83
2022-09-15T06:05:40.654Z,2.40
2022-09-15T06:08:07.277Z,2.45
2022-09-15T06:10:33.849Z,2.22
2022-09-15T06:13:00.601Z,2.23
2022-09-15T06:15:27.223Z,1.33
2022-09-15T06:17:55.209Z,1.98
2022-09-15T06:20:21.822Z,1.52
2022-09-15T06:22:48.430Z,3.42
2022-09-15T06:25:15.005Z,1.70
2022-09-15T06:27:41.967Z,1.85
2022-09-15T06:30:10.079Z,1.50
2022-09-15T06:32:36.621Z,2.20
2022-09-15T06:35:05.301Z,2.58
2022-09-15T06:37:31.885Z,1.90
2022-09-15T06:39:58.506Z,1.65
2022-09-15T06:42:25.148Z,1.70
2022-09-15T06:44:51.690Z,2.08
2022-09-15T06:47:18.277Z,1.20
2022-09-15T06:49:44.910Z,1.50
2022-09-15T06:52:13.305Z,1.75
2022-09-15T06:54:39.848Z,2.78
2022-09-15T06:57:06.406Z,2.22
2022-09-15T06:59:32.949Z,2.30
2022-09-15T07:02:04.099Z,2.50
2022-09-15T07:04:31.644Z,2.00
2022-09-15T07:06:58.188Z,2.15
2022-09-15T07:09:26.262Z,2.30
2022-09-15T07:11:52.856Z,2.88
2022-09-15T07:14:19.464Z,4.17
2022-09-15T07:16:46.098Z,3.08
2022-09-15T07:19:13.040Z,2.42
2022-09-15T07:21:39.569Z,3.85
2022-09-15T07:24:07.549Z,3.33
2022-09-15T07:26:35.664Z,2.67
2022-09-15T07:29:04.216Z,2.55
2022-09-15T07:31:32.864Z,2.67
2022-09-15T07:34:00.260Z,4.05
2022-09-15T07:36:27.055Z,3.00
2022-09-15T07:38:53.690Z,2.97
2022-09-15T07:41:22.158Z,2.53
2022-09-15T07:43:51.563Z,2.97
2022-09-15T07:46:19.222Z,2.40
2022-09-15T07:48:46.769Z,3.13
2022-09-15T07:51:14.245Z,3.67
2022-09-15T07:53:41.292Z,3.92
2022-09-15T07:56:08.671Z,3.58
2022-09-15T07:58:35.327Z,3.40
2022-09-15T08:01:04.998Z,7.85
2022-09-15T08:03:31.981Z,4.13
2022-09-15T08:05:58.715Z,3.75
2022-09-15T08:08:28.327Z,3.53
2022-09-15T08:10:55.192Z,4.95
2022-09-15T08:13:22.022Z,3.85
2022-09-15T08:15:48.856Z,4.30
2022-09-15T08:18:23.340Z,3.63
2022-09-15T08:20:49.919Z,5.38
2022-09-15T08:23:16.890Z,5.63
2022-09-15T08:25:43.428Z,6.18
2022-09-15T08:28:09.961Z,5.40
2022-09-15T08:30:36.482Z,6.53
2022-09-15T08:33:03.022Z,5.10
2022-09-15T08:35:30.994Z,6.35
2022-09-15T08:37:57.524Z,8.18
2022-09-15T08:40:30.470Z,6.10
2022-09-15T08:42:59.903Z,5.82
2022-09-15T08:45:29.572Z,6.53
2022-09-15T08:48:01.221Z,6.55
2022-09-15T08:50:35.679Z,7.82
2022-09-15T08:53:05.199Z,5.87
2022-09-15T08:55:38.459Z,6.20
2022-09-15T08:58:05.497Z,5.28
2022-09-15T09:00:33.287Z,6.35
2022-09-15T09:03:18.866Z,5.97
2022-09-15T09:05:54.019Z,6.93
2022-09-15T09:08:53.981Z,6.72
2022-09-15T09:11:30.281Z,5.45
2022-09-15T09:14:05.707Z,6.97
2022-09-15T09:16:49.202Z,6.43
2022-09-15T09:19:39.994Z,6.03
2022-09-15T09:22:11.500Z,5.53
2022-09-15T09:24:43.823Z,4.88
2022-09-15T09:27:13.894Z,5.35
2022-09-15T09:29:43.962Z,6.03
2022-09-15T09:32:24.279Z,5.90
2022-09-15T09:34:58.701Z,6.78
2022-09-15T09:37:27.066Z,6.30
2022-09-15T09:39:53.719Z,7.38
2022-09-15T09:42:25.740Z,7.13
2022-09-15T09:44:52.361Z,6.17
2022-09-15T09:47:19.960Z,8.15
2022-09-15T09:49:48.448Z,7.47
2022-09-15T09:52:34.019Z,6.13
2022-09-15T09:55:01.875Z,6.18
2022-09-15T09:57:30.209Z,8.80
2022-09-15T09:59:57.105Z,6.63
2022-09-15T10:02:25.824Z,5.30
2022-09-15T10:04:53.970Z,5.65
2022-09-15T10:07:23.039Z,6.05
2022-09-15T10:09:56.115Z,5.63
2022-09-15T10:12:28.255Z,7.93
2022-09-15T10:14:57.241Z,7.03
2022-09-15T10:17:26.130Z,6.63
2022-09-15T10:19:54.664Z,8.15
2022-09-15T10:22:27.785Z,8.77
2022-09-15T10:24:56.146Z,4.90
2022-09-15T10:27:29.147Z,7.97
2022-09-15T10:29:58.671Z,5.68
2022-09-15T10:32:28.159Z,6.50
2022-09-15T10:35:02.493Z,6.33
2022-09-15T10:37:33.382Z,7.43
2022-09-15T10:40:10.812Z,6.90
2022-09-15T10:42:48.064Z,8.05
2022-09-15T10:45:22.041Z,7.07
2022-09-15T10:48:15.979Z,6.77
2022-09-15T10:50:52.872Z,5.85
2022-09-15T10:53:29.652Z,6.45
2022-09-15T10:56:07.858Z,6.35
2022-09-15T10:58:55.060Z,10.63
2022-09-15T11:01:38.500Z,4.87
2022-09-15T11:04:19.234Z,6.72
2022-09-15T11:06:51.905Z,4.43
2022-09-15T11:09:21.954Z,4.55
2022-09-15T11:12:05.383Z,7.70
2022-09-15T11:14:52.310Z,6.07
2022-09-15T11:17:37.246Z,6.78
2022-09-15T11:20:21.713Z,9.93
2022-09-15T11:22:52.907Z,6.57
2022-09-15T11:25:22.130Z,6.47
2022-09-15T11:27:53.936Z,10.37
2022-09-15T11:30:23.098Z,5.03
2022-09-15T11:32:57.925Z,7.97
2022-09-15T11:35:40.381Z,5.22
2022-09-15T11:38:33.228Z,6.80
2022-09-15T11:41:13.455Z,5.47
2022-09-15T11:43:47.115Z,6.72
2022-09-15T11:46:21.143Z,5.35
2022-09-15T11:48:56.507Z,6.57
2022-09-15T11:51:26.582Z,5.50
2022-09-15T11:53:57.611Z,5.77
2022-09-15T11:56:29.040Z,5.70
2022-09-15T11:59:06.501Z,5.22
2022-09-15T12:01:41.879Z,6.68
2022-09-15T12:04:12.854Z,5.35
2022-09-15T12:06:45.993Z,4.70
2022-09-15T12:09:15.568Z,5.15
2022-09-15T12:11:44.667Z,4.57
2022-09-15T12:14:16.264Z,5.85
2022-09-15T12:16:43.870Z,3.97
2022-09-15T12:19:15.745Z,4.13
2022-09-15T12:21:50.417Z,5.00
2022-09-15T12:24:19.533Z,3.92
2022-09-15T12:26:46.495Z,4.38
2022-09-15T12:29:45.742Z,5.05
2022-09-15T12:32:22.824Z,3.87
2022-09-15T12:35:25.386Z,3.83
2022-09-15T12:37:54.591Z,4.45
2022-09-15T12:40:33.690Z,5.10
2022-09-15T12:43:02.191Z,3.38
2022-09-15T12:45:32.042Z,6.53
2022-09-15T12:48:05.495Z,3.70
2022-09-15T12:50:34.833Z,5.35
2022-09-15T12:53:04.653Z,6.72
2022-09-15T12:55:34.797Z,5.47
2022-09-15T12:58:07.672Z,4.27
2022-09-15T13:00:45.499Z,4.07
2022-09-15T13:03:29.421Z,5.50
2022-09-15T13:06:18.812Z,4.13
2022-09-15T13:08:50.664Z,7.10
2022-09-15T13:11:22.719Z,5.77
2022-09-15T13:13:53.035Z,5.20
2022-09-15T13:16:27.057Z,7.15
2022-09-15T13:19:07.132Z,4.60
2022-09-15T13:21:37.464Z,5.55
2022-09-15T13:24:08.346Z,6.27
2022-09-15T13:26:36.661Z,4.68
2022-09-15T13:29:05.281Z,5.15
2022-09-15T13:31:39.098Z,7.70
2022-09-15T13:38:06.150Z,6.13
2022-09-15T13:41:02.147Z,4.18
2022-09-15T13:44:10.933Z,3.72
2022-09-15T13:46:49.314Z,3.90
2022-09-15T13:49:42.889Z,3.28
2022-09-15T13:52:23.535Z,3.60
2022-09-15T13:55:20.217Z,3.35
2022-09-15T14:00:48.364Z,2.50
2022-09-15T14:03:18.186Z,5.25
2022-09-15T14:05:46.397Z,3.70
2022-09-15T14:08:16.858Z,4.38
2022-09-15T14:10:48.551Z,5.85
2022-09-15T14:13:17.535Z,3.40
2022-09-15T14:15:56.633Z,4.65
2022-09-15T14:18:23.147Z,4.70
2022-09-15T14:20:59.929Z,3.10
2022-09-15T14:23:26.658Z,3.92
2022-09-15T14:25:53.350Z,3.85
2022-09-15T14:28:27.295Z,4.18
2022-09-15T14:30:58.023Z,3.57
2022-09-15T14:33:25.788Z,3.83
2022-09-15T14:35:52.342Z,4.95
2022-09-15T14:38:22.334Z,3.72
2022-09-15T14:40:51.681Z,7.20
2022-09-15T14:43:25.605Z,4.30
2022-09-15T14:45:58.265Z,4.55
2022-09-15T14:48:27.439Z,6.10
2022-09-15T14:51:00.451Z,4.47
2022-09-15T14:53:32.981Z,3.65
2022-09-15T14:56:08.065Z,3.43
2022-09-15T14:58:37.342Z,6.05
2022-09-15T15:01:12.151Z,5.38
2022-09-15T15:03:44.234Z,5.32
2022-09-15T15:06:31.518Z,4.47
2022-09-15T15:09:03.699Z,3.27
2022-09-15T15:11:32.617Z,4.68
2022-09-15T15:14:00.009Z,4.20
2022-09-15T15:16:29.364Z,4.20
2022-09-15T15:18:56.666Z,4.80
2022-09-15T15:21:38.902Z,3.90
2022-09-15T15:24:19.631Z,2.92
2022-09-15T15:26:47.325Z,3.25
2022-09-15T15:29:38.101Z,3.42
2022-09-15T15:32:05.863Z,4.32
2022-09-15T15:34:36.261Z,5.53
2022-09-15T15:37:03.616Z,6.05
2022-09-15T15:39:31.713Z,3.42
2022-09-15T15:42:03.065Z,4.40
2022-09-15T15:44:32.474Z,5.63
2022-09-15T15:47:00.509Z,3.50
2022-09-15T15:49:28.862Z,3.50
2022-09-15T15:51:57.555Z,4.13
2022-09-15T15:54:32.232Z,3.15
2022-09-15T15:57:20.193Z,5.10
2022-09-15T15:59:46.963Z,5.37
2022-09-15T16:02:13.539Z,5.18
2022-09-15T16:04:40.115Z,6.55
2022-09-15T16:07:06.664Z,5.03
2022-09-15T16:09:33.625Z,4.63
2022-09-15T16:12:01.970Z,4.20
2022-09-15T16:14:28.515Z,6.20
2022-09-15T16:16:55.072Z,5.10
2022-09-15T16:19:21.687Z,3.13
2022-09-15T16:21:48.248Z,4.70
2022-09-15T16:24:15.608Z,3.20
2022-09-15T16:26:42.361Z,3.45
2022-09-15T16:29:10.352Z,4.55
2022-09-15T16:31:37.815Z,4.55
2022-09-15T16:34:04.602Z,4.45
2022-09-15T16:36:34.500Z,5.03
2022-09-15T16:39:01.106Z,6.55
2022-09-15T16:41:27.762Z,4.25
2022-09-15T16:43:54.297Z,3.80
2022-09-15T16:46:22.280Z,4.68
2022-09-15T16:48:48.914Z,7.03
2022-09-15T16:51:27.435Z,6.03
2022-09-15T16:53:57.312Z,4.82
2022-09-15T16:56:23.869Z,5.00
2022-09-15T16:58:50.597Z,4.38
2022-09-15T17:01:18.964Z,5.27
2022-09-15T17:03:47.569Z,6.75
2022-09-15T17:06:15.577Z,6.25
2022-09-15T17:08:42.519Z,7.32
2022-09-15T17:11:16.248Z,8.48
2022-09-15T17:13:44.184Z,6.93
2022-09-15T17:16:13.208Z,5.32
2022-09-15T17:18:39.801Z,4.68
2022-09-15T17:21:10.037Z,7.07
2022-09-15T17:23:38.847Z,5.40
2022-09-15T17:26:09.911Z,7.37
2022-09-15T17:28:36.973Z,6.10
2022-09-15T17:31:05.893Z,6.40
2022-09-15T17:33:33.181Z,6.88
2022-09-15T17:36:00.314Z,6.45
2022-09-15T17:38:29.157Z,4.83
2022-09-15T17:40:55.835Z,5.40
2022-09-15T17:43:24.630Z,5.80
2022-09-15T17:45:51.897Z,5.30
2022-09-15T17:48:18.924Z,6.65
2022-09-15T17:50:46.091Z,6.43
2022-09-15T17:53:14.857Z,6.55
2022-09-15T17:55:43.439Z,5.90
2022-09-15T17:58:10.338Z,5.18
2022-09-15T18:00:38.794Z,5.78
2022-09-15T18:03:16.617Z,5.90
2022-09-15T18:05:43.422Z,7.97
2022-09-15T18:08:10.096Z,8.00
2022-09-15T18:10:37.219Z,7.35
2022-09-15T18:13:05.834Z,4.68
2022-09-15T18:15:34.734Z,4.60
2022-09-15T18:18:03.582Z,6.82
2022-09-15T18:20:32.585Z,7.25
2022-09-15T18:22:59.660Z,6.93
2022-09-15T18:25:29.458Z,5.88
2022-09-15T18:27:56.979Z,7.63
2022-09-15T18:30:27.472Z,6.30
2022-09-15T18:32:54.065Z,6.80
2022-09-15T18:35:21.152Z,6.13
2022-09-15T18:37:48.862Z,7.07
2022-09-15T18:40:18.025Z,8.10
2022-09-15T18:42:44.832Z,8.18
2022-09-15T18:45:13.447Z,8.25
2022-09-15T18:47:41.792Z,7.05
2022-09-15T18:50:09.882Z,6.80
2022-09-15T18:52:37.627Z,4.97
2022-09-15T18:55:04.867Z,4.95
2022-09-15T18:57:34.456Z,8.27
2022-09-15T19:00:01.410Z,5.70
2022-09-15T19:02:28.032Z,5.85
2022-09-15T19:04:56.090Z,6.83
2022-09-15T19:07:27.674Z,5.75
2022-09-15T19:09:56.652Z,9.45
2022-09-15T19:12:23.469Z,7.85
2022-09-15T19:14:50.062Z,8.65
2022-09-15T19:17:17.009Z,9.90
2022-09-15T19:19:43.640Z,9.00
2022-09-15T19:22:11.605Z,10.57
2022-09-15T19:24:38.185Z,7.72
2022-09-15T19:27:06.730Z,6.50
2022-09-15T19:29:34.878Z,5.63
2022-09-15T19:32:01.571Z,7.22
2022-09-15T19:34:28.186Z,6.15
2022-09-15T19:36:54.940Z,8.63
2022-09-15T19:39:23.004Z,5.90
2022-09-15T19:41:49.847Z,6.17
2022-09-15T19:44:16.529Z,5.95
2022-09-15T19:46:43.101Z,5.57
2022-09-15T19:49:09.890Z,4.90
2022-09-15T19:51:36.485Z,6.55
2022-09-15T19:54:03.306Z,5.97
2022-09-15T19:56:31.275Z,6.40
2022-09-15T19:58:59.176Z,6.68
2022-09-15T20:01:32.456Z,5.38
2022-09-15T20:03:59.223Z,5.13
2022-09-15T20:06:28.912Z,7.83
2022-09-15T20:08:58.848Z,5.85
2022-09-15T20:11:27.459Z,7.43
2022-09-15T20:13:55.780Z,6.07
2022-09-15T20:16:23.564Z,6.10
2022-09-15T20:18:52.357Z,6.70
2022-09-15T20:21:39.131Z,5.53
2022-09-15T20:24:12.014Z,10.75
2022-09-15T20:26:38.658Z,6.68
2022-09-15T20:29:06.650Z,5.00
2022-09-15T20:31:33.584Z,7.40
2022-09-15T20:34:00.778Z,5.68
2022-09-15T20:36:29.768Z,6.68
2022-09-15T20:38:56.877Z,5.60
2022-09-15T20:41:25.074Z,7.90
2022-09-15T20:43:52.047Z,5.23
2022-09-15T20:46:22.075Z,5.90
2022-09-15T20:48:49.720Z,6.72
2022-09-15T20:51:18.679Z,6.07
2022-09-15T20:53:47.290Z,5.05
2022-09-15T20:56:15.581Z,6.57
2022-09-15T20:58:42.493Z,5.80
2022-09-15T21:01:10.975Z,5.95
2022-09-15T21:03:40.349Z,5.00
2022-09-15T21:06:09.925Z,7.03
2022-09-15T21:08:37.166Z,5.00
2022-09-15T21:11:05.484Z,5.55
2022-09-15T21:13:33.812Z,5.90
2022-09-15T21:16:02.462Z,6.55
2022-09-15T21:18:31.264Z,6.32
2022-09-15T21:21:00.853Z,6.43
2022-09-15T21:23:32.350Z,5.82
2022-09-15T21:26:01.895Z,5.93
2022-09-15T21:28:29.568Z,5.97
2022-09-15T21:31:02.026Z,5.95
2022-09-15T21:33:28.925Z,7.97
2022-09-15T21:36:03.850Z,4.97
2022-09-15T21:38:30.496Z,8.65
2022-09-15T21:40:57.074Z,6.57
2022-09-15T21:43:23.642Z,6.47
2022-09-15T21:45:54.865Z,5.90
2022-09-15T21:48:21.475Z,6.22
2022-09-15T21:50:50.025Z,5.65
2022-09-15T21:53:18.257Z,5.68
2022-09-15T21:55:45.061Z,9.35
2022-09-15T21:58:11.590Z,5.00
2022-09-15T22:00:38.195Z,5.57
2022-09-15T22:03:04.829Z,7.97
2022-09-15T22:05:31.471Z,6.70
2022-09-15T22:08:01.552Z,6.72
2022-09-15T22:10:32.155Z,8.07
2022-09-15T22:12:58.705Z,5.70
2022-09-15T22:15:25.259Z,6.45
2022-09-15T22:17:52.497Z,7.10
2022-09-15T22:20:19.036Z,6.85
2022-09-15T22:22:45.582Z,6.07
2022-09-15T22:25:12.332Z,7.05
2022-09-15T22:27:40.233Z,9.73
2022-09-15T22:30:08.007Z,8.68
2022-09-15T22:32:34.568Z,8.65
2022-09-15T22:35:01.168Z,7.47
2022-09-15T22:37:27.730Z,10.88
2022-09-15T22:39:59.246Z,7.22
2022-09-15T22:42:26.578Z,8.00
2022-09-15T22:44:54.580Z,7.03
2022-09-15T22:47:22.657Z,9.60
2022-09-15T22:49:49.189Z,8.27
2022-09-15T22:52:15.819Z,7.15
2022-09-15T22:54:42.373Z,9.32
2022-09-15T22:57:08.977Z,6.68
2022-09-15T22:59:35.532Z,8.03
2022-09-15T23:02:03.510Z,7.00
2022-09-15T23:04:30.108Z,9.65
2022-09-15T23:06:56.653Z,6.32
2022-09-15T23:09:23.201Z,6.88
2022-09-15T23:11:49.757Z,6.80
2022-09-15T23:14:17.093Z,6.85
2022-09-15T23:16:44.641Z,7.97
2022-09-15T23:19:13.672Z,7.43
2022-09-15T23:21:40.357Z,7.80
2022-09-15T23:24:07.237Z,8.33
2022-09-15T23:26:33.784Z,7.93
2022-09-15T23:29:00.401Z,7.18
2022-09-15T23:31:27.150Z,7.80
2022-09-15T23:33:53.696Z,7.68
2022-09-15T23:36:21.612Z,8.80
2022-09-15T23:38:49.062Z,8.20
2022-09-15T23:41:17.069Z,6.43
2022-09-15T23:43:43.966Z,7.72
2022-09-15T23:46:10.683Z,9.73
2022-09-15T23:48:37.696Z,7.87
2022-09-15T23:51:04.580Z,7.70
2022-09-15T23:53:32.825Z,11.43
2022-09-15T23:55:59.418Z,11.93
2022-09-15T23:58:26.242Z,7.93
